createdAt,value
2022-12-03T00:02:41.163Z,100383.47
2022-12-03T00:08:50.315Z,100394.28
2022-12-03T00:11:39.339Z,100382.56
2022-12-03T00:14:13.447Z,100388.38
2022-12-03T00:19:41.627Z,100392.44
2022-12-03T00:25:05.060Z,100384.75
2022-12-03T00:30:35.149Z,100375.81
2022-12-03T00:40:02.933Z,100376.22
2022-12-03T00:43:05.578Z,100372.88
2022-12-03T00:45:34.444Z,100375.50
2022-12-03T00:55:09.817Z,100382.34
2022-12-03T00:57:49.870Z,100363.59
2022-12-03T01:00:37.839Z,100386.50
2022-12-03T01:03:10.847Z,100382.28
2022-12-03T01:09:58.171Z,100388.34
2022-12-03T01:12:36.109Z,100374.44
2022-12-03T01:15:25.485Z,100379.50
2022-12-03T01:18:11.439Z,100382.09
2022-12-03T01:20:58.449Z,100381.34
2022-12-03T01:23:30.126Z,100379.34
2022-12-03T01:32:20.764Z,100386.31
2022-12-03T01:38:13.122Z,100386.31
2022-12-03T01:44:39.438Z,100387.75
2022-12-03T01:50:18.913Z,100394.47
2022-12-03T01:52:52.852Z,100386.88
2022-12-03T01:55:48.462Z,100387.81
2022-12-03T01:58:23.251Z,100393.84
2022-12-03T02:03:40.349Z,100392.94
2022-12-03T02:06:15.727Z,100399.41
2022-12-03T02:08:59.400Z,100399.09
2022-12-03T02:11:35.586Z,100403.63
2022-12-03T02:14:11.231Z,100404.59
2022-12-03T02:16:41.350Z,100404.44
2022-12-03T02:19:17.140Z,100405.22
2022-12-03T02:21:55.695Z,100418.75
2022-12-03T02:24:29.470Z,100413.28
2022-12-03T02:27:16.735Z,100404.19
2022-12-03T02:29:48.509Z,100398.25
2022-12-03T02:32:17.857Z,100402.44
2022-12-03T02:35:00.112Z,100404.19
2022-12-03T02:37:34.306Z,100404.97
2022-12-03T02:40:20.689Z,100403.72
2022-12-03T02:43:00.901Z,100405.00
2022-12-03T02:45:34.788Z,100404.75
2022-12-03T02:48:15.434Z,100400.31
2022-12-03T02:50:53.606Z,100393.81
2022-12-03T02:53:26.769Z,100404.75
2022-12-03T02:55:57.525Z,100396.78
2022-12-03T03:01:31.048Z,100397.47
2022-12-03T03:04:08.088Z,100399.75
2022-12-03T03:06:38.859Z,100393.78
2022-12-03T03:09:25.106Z,100394.50
2022-12-03T03:12:04.524Z,100393.66
2022-12-03T03:14:45.221Z,100394.88
2022-12-03T03:17:17.839Z,100392.75
2022-12-03T03:20:01.467Z,100396.00
2022-12-03T03:22:35.967Z,100405.69
2022-12-03T03:25:11.406Z,100396.59
2022-12-03T03:27:56.855Z,100401.50
2022-12-03T03:30:50.820Z,100404.53
2022-12-03T03:36:09.002Z,100401.50
2022-12-03T03:38:43.698Z,100406.06
2022-12-03T03:41:14.294Z,100401.63
2022-12-03T03:43:44.819Z,100404.19
2022-12-03T03:46:20.423Z,100399.13
2022-12-03T03:49:12.012Z,100394.97
2022-12-03T03:51:52.062Z,100387.78
2022-12-03T03:54:29.774Z,100386.22
2022-12-03T03:59:42.494Z,100387.09
2022-12-03T04:02:25.416Z,100389.00
2022-12-03T04:07:44.217Z,100386.28
2022-12-03T04:10:31.250Z,100384.88
2022-12-03T04:16:15.263Z,100374.25
2022-12-03T04:19:08.444Z,100369.91
2022-12-03T04:22:01.484Z,100366.84
2022-12-03T04:24:29.492Z,100372.09
2022-12-03T04:27:17.160Z,100366.69
2022-12-03T04:29:45.472Z,100368.06
2022-12-03T04:32:32.989Z,100363.56
2022-12-03T04:35:20.529Z,100363.63
2022-12-03T04:41:08.112Z,100369.50
2022-12-03T04:44:00.331Z,100369.25
2022-12-03T04:46:36.111Z,100353.91
2022-12-03T04:49:18.756Z,100358.94
2022-12-03T04:52:02.774Z,100353.09
2022-12-03T04:54:42.093Z,100361.47
2022-12-03T04:57:13.883Z,100364.97
2022-12-03T04:59:44.649Z,100365.41
2022-12-03T05:02:13.129Z,100364.94
2022-12-03T05:04:44.061Z,100363.78
2022-12-03T05:07:24.734Z,100366.13
2022-12-03T05:10:00.593Z,100354.59
2022-12-03T05:12:46.818Z,100368.50
2022-12-03T05:15:26.909Z,100357.81
2022-12-03T05:18:17.615Z,100365.66
2022-12-03T05:20:56.472Z,100368.22
2022-12-03T05:23:33.295Z,100369.16
2022-12-03T05:26:10.262Z,100363.94
2022-12-03T05:28:40.853Z,100358.84
2022-12-03T05:31:32.152Z,100366.19
2022-12-03T05:34:01.163Z,100370.63
2022-12-03T05:36:35.062Z,100356.28
2022-12-03T05:39:08.887Z,100359.78
2022-12-03T05:41:54.903Z,100359.06
2022-12-03T05:44:29.519Z,100360.88
2022-12-03T05:47:04.384Z,100368.28
2022-12-03T05:49:35.045Z,100363.56
2022-12-03T05:52:05.323Z,100360.22
2022-12-03T05:58:08.889Z,100369.38
2022-12-03T06:00:48.734Z,100369.41
2022-12-03T06:03:25.212Z,100374.78
2022-12-03T06:05:54.095Z,100372.06
2022-12-03T06:08:24.078Z,100374.84
2022-12-03T06:11:20.204Z,100367.03
2022-12-03T06:18:08.200Z,100364.25
2022-12-03T06:23:24.009Z,100365.50
2022-12-03T06:26:01.180Z,100364.09
2022-12-03T06:28:37.659Z,100354.78
2022-12-03T06:31:08.393Z,100367.81
2022-12-03T06:33:45.766Z,100361.69
2022-12-03T06:36:22.571Z,100352.53
2022-12-03T06:38:59.238Z,100345.56
2022-12-03T06:41:35.820Z,100355.97
2022-12-03T06:44:14.124Z,100350.53
2022-12-03T06:46:48.473Z,100346.13
2022-12-03T06:55:22.261Z,100346.03
2022-12-03T06:58:14.360Z,100353.00
2022-12-03T07:00:47.060Z,100363.25
2022-12-03T07:06:28.068Z,100347.28
2022-12-03T07:09:01.073Z,100363.25
2022-12-03T07:11:51.657Z,100365.03
2022-12-03T07:19:58.777Z,100373.31
2022-12-03T07:22:44.388Z,100378.13
2022-12-03T07:25:12.624Z,100382.63
2022-12-03T07:30:32.534Z,100377.63
2022-12-03T07:35:56.568Z,100374.13
2022-12-03T07:38:31.718Z,100376.91
2022-12-03T07:41:02.838Z,100374.97
2022-12-03T07:43:33.188Z,100367.44
2022-12-03T07:46:06.199Z,100358.88
2022-12-03T07:48:37.659Z,100370.47
2022-12-03T07:51:15.270Z,100365.25
2022-12-03T07:53:48.411Z,100367.75
2022-12-03T07:56:17.521Z,100365.09
2022-12-03T08:02:11.309Z,100367.66
2022-12-03T08:04:40.922Z,100369.13
2022-12-03T08:13:59.647Z,100376.13
2022-12-03T08:22:46.420Z,100374.03
2022-12-03T08:25:47.695Z,100368.69
2022-12-03T08:35:10.265Z,100364.47
2022-12-03T08:37:40.021Z,100369.19
2022-12-03T08:46:30.119Z,100378.22
2022-12-03T08:49:04.208Z,100369.81
2022-12-03T08:54:23.683Z,100364.34
2022-12-03T08:56:51.857Z,100373.03
2022-12-03T08:59:45.518Z,100373.22
2022-12-03T09:02:51.957Z,100376.47
2022-12-03T09:05:30.512Z,100367.97
2022-12-03T09:11:31.917Z,100372.69
2022-12-03T09:13:59.882Z,100370.53
2022-12-03T09:16:32.652Z,100371.41
2022-12-03T09:19:14.228Z,100363.72
2022-12-03T09:21:50.627Z,100370.59
2022-12-03T09:24:43.745Z,100356.03
2022-12-03T09:27:20.806Z,100364.09
2022-12-03T09:29:48.998Z,100365.34
2022-12-03T09:32:18.762Z,100360.53
2022-12-03T09:34:49.415Z,100354.75
2022-12-03T09:37:32.842Z,100362.97
2022-12-03T09:40:02.310Z,100361.38
2022-12-03T09:42:30.524Z,100364.69
2022-12-03T09:45:08.862Z,100358.16
2022-12-03T09:47:36.751Z,100358.03
2022-12-03T09:50:15.873Z,100353.53
2022-12-03T09:52:51.176Z,100349.03
2022-12-03T09:55:41.299Z,100344.41
2022-12-03T09:58:12.843Z,100333.41
2022-12-03T10:00:48.614Z,100329.41
2022-12-03T10:03:44.374Z,100323.16
2022-12-03T10:06:16.608Z,100322.03
2022-12-03T10:08:49.060Z,100323.91
2022-12-03T10:11:18.662Z,100333.91
2022-12-03T10:13:47.762Z,100324.53
2022-12-03T10:19:02.598Z,100323.31
2022-12-03T10:24:26.977Z,100325.59
2022-12-03T10:29:40.696Z,100320.41
2022-12-03T10:32:13.442Z,100318.72
2022-12-03T10:35:00.455Z,100311.81
2022-12-03T10:40:46.117Z,100304.72
2022-12-03T10:43:42.225Z,100310.19
2022-12-03T10:46:20.226Z,100308.25
2022-12-03T10:49:06.522Z,100295.25
2022-12-03T10:51:34.564Z,100300.16
2022-12-03T10:54:24.521Z,100298.00
2022-12-03T10:57:03.089Z,100289.75
2022-12-03T10:59:34.157Z,100294.78
2022-12-03T11:02:05.997Z,100280.41
2022-12-03T11:04:52.229Z,100277.91
2022-12-03T11:07:26.796Z,100274.91
2022-12-03T11:10:00.549Z,100273.53
2022-12-03T11:12:37.216Z,100269.94
2022-12-03T11:18:09.227Z,100264.81
2022-12-03T11:24:28.632Z,100265.41
2022-12-03T11:27:30.792Z,100260.59
2022-12-03T11:30:40.260Z,100263.31
2022-12-03T11:33:26.654Z,100253.78
2022-12-03T11:36:47.827Z,100263.91
2022-12-03T11:39:36.491Z,100261.50
2022-12-03T11:42:25.488Z,100249.41
2022-12-03T11:45:24.352Z,100249.84
2022-12-03T11:56:33.940Z,100226.13
2022-12-03T11:59:04.297Z,100227.84
2022-12-03T12:01:40.540Z,100227.59
2022-12-03T12:04:09.435Z,100220.97
2022-12-03T12:06:53.476Z,100215.41
2022-12-03T12:12:25.357Z,100215.28
2022-12-03T12:14:56.187Z,100219.19
2022-12-03T12:27:27.431Z,100217.28
2022-12-03T12:30:38.471Z,100205.72
2022-12-03T12:33:16.702Z,100199.41
2022-12-03T12:48:25.224Z,100202.09
2022-12-03T12:57:32.423Z,100199.13
2022-12-03T13:03:27.819Z,100192.59
2022-12-03T13:05:58.158Z,100197.22
2022-12-03T13:08:31.821Z,100203.19
2022-12-03T13:11:11.299Z,100195.41
2022-12-03T13:17:05.295Z,100211.75
2022-12-03T13:23:03.646Z,100198.06
2022-12-03T13:28:48.739Z,100202.69
2022-12-03T13:40:49.522Z,100191.00
2022-12-03T13:43:52.714Z,100182.66
2022-12-03T13:46:59.799Z,100180.00
2022-12-03T13:55:34.872Z,100176.19
2022-12-03T13:58:08.104Z,100171.25
2022-12-03T14:06:22.428Z,100173.06
2022-12-03T14:08:52.924Z,100175.84
2022-12-03T14:11:45.641Z,100172.31
2022-12-03T14:14:16.002Z,100168.56
2022-12-03T14:19:47.003Z,100173.22
2022-12-03T14:22:25.734Z,100175.44
2022-12-03T14:24:55.002Z,100164.03
2022-12-03T14:27:35.876Z,100172.81
2022-12-03T14:30:06.969Z,100166.56
2022-12-03T14:32:50.547Z,100164.78
2022-12-03T14:35:18.939Z,100156.34
2022-12-03T14:37:51.205Z,100159.97
2022-12-03T14:43:08.886Z,100160.53
2022-12-03T14:45:38.641Z,100148.06
2022-12-03T14:48:08.677Z,100148.97
2022-12-03T14:50:42.076Z,100157.88
2022-12-03T14:53:11.091Z,100154.63
2022-12-03T14:55:56.225Z,100159.06
2022-12-03T14:58:25.922Z,100163.66
2022-12-03T15:00:54.568Z,100162.53
2022-12-03T15:03:26.048Z,100164.84
2022-12-03T15:05:54.268Z,100163.25
2022-12-03T15:08:22.899Z,100167.75
2022-12-03T15:10:52.103Z,100170.84
2022-12-03T15:13:20.664Z,100175.84
2022-12-03T15:15:50.569Z,100163.94
2022-12-03T15:18:23.648Z,100174.72
2022-12-03T15:20:57.258Z,100165.59
2022-12-03T15:23:34.543Z,100172.88
2022-12-03T15:26:09.037Z,100163.13
2022-12-03T15:28:37.640Z,100172.91
2022-12-03T15:31:17.996Z,100177.19
2022-12-03T15:33:48.628Z,100175.16
2022-12-03T15:36:19.165Z,100172.13
2022-12-03T15:38:50.386Z,100177.28
2022-12-03T15:41:26.929Z,100170.03
2022-12-03T15:43:58.179Z,100177.34
2022-12-03T15:46:28.169Z,100173.75
2022-12-03T15:48:57.376Z,100171.84
2022-12-03T15:51:27.790Z,100170.97
2022-12-03T15:53:57.590Z,100175.50
2022-12-03T15:56:26.044Z,100166.34
2022-12-03T15:58:55.234Z,100168.59
2022-12-03T16:01:27.821Z,100169.84
2022-12-03T16:03:58.491Z,100174.31
2022-12-03T16:14:50.527Z,100176.19
2022-12-03T16:17:21.376Z,100182.31
2022-12-03T16:19:53.924Z,100178.13
2022-12-03T16:22:41.378Z,100174.94
2022-12-03T16:25:10.477Z,100175.78
2022-12-03T16:27:41.821Z,100169.00
2022-12-03T16:30:28.918Z,100175.91
2022-12-03T16:33:03.185Z,100175.13
2022-12-03T16:35:37.011Z,100170.91
2022-12-03T16:38:13.152Z,100171.41
2022-12-03T16:40:48.384Z,100172.63
2022-12-03T16:43:22.309Z,100170.78
2022-12-03T16:46:05.063Z,100166.50
2022-12-03T16:48:34.304Z,100163.72
2022-12-03T16:51:03.569Z,100162.56
2022-12-03T16:53:43.550Z,100159.28
2022-12-03T16:58:58.092Z,100160.13
2022-12-03T17:01:28.094Z,100165.13
2022-12-03T17:03:56.745Z,100151.38
2022-12-03T17:06:28.119Z,100156.97
2022-12-03T17:09:00.322Z,100159.50
2022-12-03T17:11:28.699Z,100143.13
2022-12-03T17:14:00.277Z,100141.16
2022-12-03T17:16:28.581Z,100149.59
2022-12-03T17:19:03.697Z,100144.72
2022-12-03T17:21:35.009Z,100140.44
2022-12-03T17:24:28.297Z,100142.91
2022-12-03T17:26:57.547Z,100142.00
2022-12-03T17:29:28.614Z,100137.59
2022-12-03T17:31:57.603Z,100138.88
2022-12-03T17:34:26.302Z,100143.31
2022-12-03T17:36:57.878Z,100139.31
2022-12-03T17:39:43.652Z,100135.25
2022-12-03T17:42:14.210Z,100137.59
2022-12-03T17:44:48.150Z,100138.81
2022-12-03T17:47:20.003Z,100130.50
2022-12-03T17:52:51.547Z,100140.94
2022-12-03T18:01:28.636Z,100127.28
2022-12-03T18:04:02.717Z,100132.72
2022-12-03T18:06:47.019Z,100121.38
2022-12-03T18:09:18.525Z,100127.00
2022-12-03T18:14:36.983Z,100136.25
2022-12-03T18:17:05.573Z,100129.63
2022-12-03T18:19:40.303Z,100126.16
2022-12-03T18:22:29.128Z,100126.38
2022-12-03T18:25:01.865Z,100122.75
2022-12-03T18:27:42.254Z,100129.06
2022-12-03T18:30:22.605Z,100123.28
2022-12-03T18:32:59.028Z,100122.06
2022-12-03T18:44:00.628Z,100113.63
2022-12-03T18:46:53.157Z,100117.09
2022-12-03T18:49:41.230Z,100114.81
2022-12-03T18:55:20.456Z,100105.00
2022-12-03T18:58:02.252Z,100105.56
2022-12-03T19:00:49.362Z,100112.47
2022-12-03T19:03:21.200Z,100112.81
2022-12-03T19:06:01.690Z,100120.34
2022-12-03T19:08:36.170Z,100121.38
2022-12-03T19:11:06.232Z,100110.81
2022-12-03T19:13:38.942Z,100113.25
2022-12-03T19:16:18.038Z,100109.22
2022-12-03T19:18:50.863Z,100107.41
2022-12-03T19:21:23.033Z,100109.63
2022-12-03T19:24:22.709Z,100091.34
2022-12-03T19:26:46.590Z,100099.72
2022-12-03T19:29:24.985Z,100095.41
2022-12-03T19:32:18.040Z,100096.72
2022-12-03T19:34:51.760Z,100094.28
2022-12-03T19:37:20.843Z,100093.56
2022-12-03T19:39:54.225Z,100097.44
2022-12-03T19:42:24.547Z,100092.09
2022-12-03T19:44:58.122Z,100093.19
2022-12-03T19:53:29.307Z,100091.78
2022-12-03T19:58:49.112Z,100086.97
2022-12-03T20:01:24.832Z,100097.66
2022-12-03T20:09:40.454Z,100088.34
2022-12-03T20:15:24.849Z,100094.38
2022-12-03T20:20:46.078Z,100100.56
2022-12-03T20:29:25.560Z,100095.63
2022-12-03T20:32:01.152Z,100098.53
2022-12-03T20:40:57.830Z,100095.00
2022-12-03T20:43:33.333Z,100087.41
2022-12-03T20:49:43.007Z,100078.44
2022-12-03T21:08:40.988Z,100071.16
2022-12-03T21:11:46.674Z,100069.84
2022-12-03T21:32:38.780Z,100068.44
2022-12-03T21:35:37.964Z,100063.59
2022-12-03T21:54:06.551Z,100065.50
2022-12-03T21:56:34.433Z,100059.78
2022-12-03T21:59:02.290Z,100055.41
2022-12-03T22:01:30.250Z,100051.97
2022-12-03T22:03:58.187Z,100057.84
2022-12-03T22:06:26.092Z,100059.53
2022-12-03T22:08:54.071Z,100057.75
2022-12-03T22:11:24.345Z,100058.13
2022-12-03T22:13:52.552Z,100066.50
2022-12-03T22:16:22.312Z,100062.81
2022-12-03T22:18:50.617Z,100063.78
2022-12-03T22:21:19.391Z,100065.88
2022-12-03T22:23:47.083Z,100069.94
2022-12-03T22:26:16.117Z,100066.84
2022-12-03T22:28:46.090Z,100060.09
2022-12-03T22:31:14.876Z,100062.47
2022-12-03T22:33:43.431Z,100054.78
2022-12-03T22:36:19.662Z,100056.06
2022-12-03T22:38:47.860Z,100055.16
2022-12-03T22:41:16.111Z,100049.22
2022-12-03T22:43:45.675Z,100042.38
2022-12-03T22:46:13.791Z,100044.28
2022-12-03T22:48:41.985Z,100053.59
2022-12-03T22:51:12.970Z,100040.38
2022-12-03T22:53:42.132Z,100050.28
2022-12-03T22:56:09.949Z,100044.44
2022-12-03T22:58:38.726Z,100051.41
2022-12-03T23:01:08.771Z,100038.47
2022-12-03T23:03:37.633Z,100036.03
2022-12-03T23:06:10.440Z,100042.00
2022-12-03T23:08:38.370Z,100028.97
2022-12-03T23:11:06.402Z,100029.06
2022-12-03T23:13:34.183Z,100028.56
2022-12-03T23:16:01.975Z,100023.69
2022-12-03T23:18:31.688Z,100020.19
2022-12-03T23:20:59.611Z,100020.28
2022-12-03T23:23:28.362Z,100020.19
2022-12-03T23:25:59.967Z,100026.03
2022-12-03T23:28:28.727Z,100022.34
2022-12-03T23:30:57.363Z,100021.53
2022-12-03T23:33:26.788Z,100016.34
2022-12-03T23:35:56.059Z,100010.94
2022-12-03T23:38:24.166Z,100012.19
2022-12-03T23:40:52.948Z,100002.69
2022-12-03T23:43:21.860Z,99990.81
2022-12-03T23:45:49.652Z,99991.03
2022-12-03T23:48:17.557Z,99980.53
2022-12-03T23:50:45.581Z,99991.03
2022-12-03T23:53:15.089Z,99981.44
2022-12-03T23:55:43.967Z,99975.25
2022-12-03T23:58:11.870Z,99977.38
